Time;durP1;ratioP1;P1;durP2;ratioP2;P2;SDS_P1;SDS_P2;PMS_P1;PMS_P2;Temp;Humidity;BMP_temperature;BMP_pressure;BME280_temperature;BME280_humidity;BME280_pressure;Samples;Min_cycle;Max_cycle;Signal;HPM_P1;HPM_P2
2021/07/25 00:01:09;;;;;;;11.75;9.02;;;;;;;;;;5096004;28;20028;-60
2021/07/25 00:03:35;;;;;;;9.30;8.40;;;;;;;;;;5095907;28;20074;-60
2021/07/25 00:06:01;;;;;;;10.90;8.40;;;;;;;;;;5095833;28;20016;-60
2021/07/25 00:08:27;;;;;;;11.73;8.50;;;;;;;;;;5095739;28;20020;-60
2021/07/25 00:10:53;;;;;;;9.23;7.57;;;;;;;;;;5095837;28;20446;-60
2021/07/25 00:13:19;;;;;;;10.40;7.57;;;;;;;;;;5095696;28;20046;-60
2021/07/25 00:15:45;;;;;;;10.15;8.18;;;;;;;;;;5095575;28;20103;-60
2021/07/25 00:18:11;;;;;;;9.60;8.00;;;;;;;;;;5095702;28;20036;-60
2021/07/25 00:20:37;;;;;;;10.13;7.97;;;;;;;;;;5095514;28;20358;-60
2021/07/25 00:23:03;;;;;;;8.75;7.22;;;;;;;;;;5095884;28;20223;-60
2021/07/25 00:25:29;;;;;;;11.27;7.60;;;;;;;;;;5095438;28;20023;-60
2021/07/25 00:27:56;;;;;;;8.65;7.75;;;;;;;;;;5095976;28;20366;-60
2021/07/25 00:30:25;;;;;;;10.20;8.38;;;;;;;;;;5095379;28;20107;-60
2021/07/25 00:32:52;;;;;;;9.43;7.40;;;;;;;;;;5095588;28;20024;-60
2021/07/25 00:35:18;;;;;;;9.68;8.13;;;;;;;;;;5094485;28;20021;-60
2021/07/25 00:37:47;;;;;;;8.50;7.55;;;;;;;;;;5094891;28;20393;-60
2021/07/25 00:40:15;;;;;;;8.88;7.40;;;;;;;;;;5094336;28;20074;-60
2021/07/25 00:42:41;;;;;;;10.48;7.70;;;;;;;;;;5095862;28;20059;-60
2021/07/25 00:45:07;;;;;;;10.20;7.53;;;;;;;;;;5093995;28;20063;-60
2021/07/25 00:47:34;;;;;;;9.50;7.43;;;;;;;;;;5094979;28;20024;-60
2021/07/25 00:50:00;;;;;;;7.55;6.40;;;;;;;;;;5093885;28;20035;-60
2021/07/25 00:52:26;;;;;;;12.55;8.07;;;;;;;;;;5093615;28;20175;-60
2021/07/25 00:54:53;;;;;;;12.02;8.13;;;;;;;;;;5094830;28;20016;-60
2021/07/25 00:57:19;;;;;;;11.02;7.68;;;;;;;;;;5094696;28;20024;-60
2021/07/25 00:59:45;;;;;;;9.25;8.13;;;;;;;;;;5094480;28;20028;-60
2021/07/25 01:02:11;;;;;;;9.77;8.07;;;;;;;;;;5095334;28;20028;-60
2021/07/25 01:04:40;;;;;;;8.35;7.15;;;;;;;;;;5094440;28;20024;-60
2021/07/25 01:07:14;;;;;;;8.48;6.72;;;;;;;;;;5094277;28;20016;-60
2021/07/25 01:09:43;;;;;;;7.53;6.72;;;;;;;;;;5093578;28;20021;-60
2021/07/25 01:12:13;;;;;;;11.48;7.55;;;;;;;;;;5094892;28;20402;-60
2021/07/25 01:14:39;;;;;;;9.68;7.75;;;;;;;;;;5095142;28;20016;-60
2021/07/25 01:17:25;;;;;;;9.90;8.07;;;;;;;;;;5094512;28;20033;-60
2021/07/25 01:19:51;;;;;;;8.18;7.30;;;;;;;;;;5094546;28;20027;-60
2021/07/25 01:22:17;;;;;;;7.82;7.05;;;;;;;;;;5094546;28;20370;-60
2021/07/25 01:24:43;;;;;;;10.13;8.25;;;;;;;;;;5094373;28;20074;-60
2021/07/25 01:27:16;;;;;;;9.73;6.47;;;;;;;;;;5094835;28;20028;-60
2021/07/25 01:29:43;;;;;;;8.98;7.30;;;;;;;;;;5094624;28;20105;-60
2021/07/25 01:32:10;;;;;;;12.93;7.25;;;;;;;;;;5094711;28;20020;-60
2021/07/25 01:34:36;;;;;;;9.82;7.75;;;;;;;;;;5094250;28;20090;-60
2021/07/25 01:37:03;;;;;;;9.35;8.30;;;;;;;;;;5094276;28;20032;-60
2021/07/25 01:39:29;;;;;;;9.45;8.13;;;;;;;;;;5094081;28;20030;-60
2021/07/25 01:41:55;;;;;;;12.90;8.25;;;;;;;;;;5094384;28;20173;-60
2021/07/25 01:44:21;;;;;;;8.50;7.60;;;;;;;;;;5092729;28;20422;-60
2021/07/25 01:46:47;;;;;;;8.77;7.65;;;;;;;;;;5093906;28;20430;-60
2021/07/25 01:49:13;;;;;;;10.02;8.13;;;;;;;;;;5092661;28;20024;-60
2021/07/25 01:51:39;;;;;;;10.05;7.63;;;;;;;;;;5093385;28;20292;-61
2021/07/25 01:54:05;;;;;;;9.07;8.18;;;;;;;;;;5092583;28;20016;-60
2021/07/25 01:56:32;;;;;;;12.05;8.73;;;;;;;;;;5093705;28;20036;-60
2021/07/25 01:58:59;;;;;;;13.70;8.68;;;;;;;;;;5093703;28;20024;-60
2021/07/25 02:01:25;;;;;;;12.05;8.55;;;;;;;;;;5094453;28;20028;-60
2021/07/25 02:03:51;;;;;;;9.50;8.45;;;;;;;;;;5093647;28;20076;-60
2021/07/25 02:06:17;;;;;;;13.50;9.70;;;;;;;;;;5093981;28;20111;-60
2021/07/25 02:08:43;;;;;;;10.82;8.77;;;;;;;;;;5092884;28;20576;-60
2021/07/25 02:11:09;;;;;;;9.90;8.90;;;;;;;;;;5093658;28;20075;-60
2021/07/25 02:13:35;;;;;;;9.93;8.63;;;;;;;;;;5093405;28;20020;-60
2021/07/25 02:16:01;;;;;;;14.32;9.70;;;;;;;;;;5093598;28;20020;-60
2021/07/25 02:18:28;;;;;;;12.27;8.90;;;;;;;;;;5093530;28;20089;-60
2021/07/25 02:20:54;;;;;;;12.90;9.02;;;;;;;;;;5092383;28;20027;-60
2021/07/25 02:23:20;;;;;;;9.60;8.60;;;;;;;;;;5093687;28;20027;-60
2021/07/25 02:25:46;;;;;;;9.55;8.07;;;;;;;;;;5093322;28;20028;-60
2021/07/25 02:28:12;;;;;;;12.30;8.60;;;;;;;;;;5094036;28;20047;-60
2021/07/25 02:30:38;;;;;;;9.95;8.52;;;;;;;;;;5092942;28;20016;-60
2021/07/25 02:33:05;;;;;;;9.57;8.57;;;;;;;;;;5093998;28;20499;-60
2021/07/25 02:35:31;;;;;;;9.70;8.75;;;;;;;;;;5093929;28;20020;-60
2021/07/25 02:37:57;;;;;;;9.15;8.20;;;;;;;;;;5091551;28;20059;-60
2021/07/25 02:40:24;;;;;;;11.52;8.32;;;;;;;;;;5093071;28;20024;-60
2021/07/25 02:42:50;;;;;;;10.35;9.00;;;;;;;;;;5093285;28;20043;-60
2021/07/25 02:45:16;;;;;;;10.63;8.40;;;;;;;;;;5093130;28;20024;-60
2021/07/25 02:47:42;;;;;;;9.13;8.23;;;;;;;;;;5093100;28;20342;-60
2021/07/25 02:50:08;;;;;;;8.88;8.02;;;;;;;;;;5092967;28;20016;-60
2021/07/25 02:52:34;;;;;;;10.55;8.65;;;;;;;;;;5091701;28;20082;-60
2021/07/25 02:55:00;;;;;;;9.50;8.50;;;;;;;;;;5093032;28;20090;-60
2021/07/25 02:57:26;;;;;;;10.30;7.57;;;;;;;;;;5092933;28;20032;-60
2021/07/25 02:59:52;;;;;;;7.80;7.00;;;;;;;;;;5093297;28;20113;-60
2021/07/25 03:02:18;;;;;;;12.18;8.05;;;;;;;;;;5092956;28;20094;-60
2021/07/25 03:04:47;;;;;;;12.25;8.93;;;;;;;;;;5091586;28;20032;-60
2021/07/25 03:07:14;;;;;;;9.32;7.55;;;;;;;;;;5092890;28;20020;-60
2021/07/25 03:09:41;;;;;;;10.50;7.80;;;;;;;;;;5092941;28;20402;-60
2021/07/25 03:12:07;;;;;;;11.30;8.32;;;;;;;;;;5091228;28;20086;-60
2021/07/25 03:14:33;;;;;;;10.95;7.70;;;;;;;;;;5092850;28;20417;-60
2021/07/25 03:16:59;;;;;;;8.80;7.50;;;;;;;;;;5091430;28;20031;-60
2021/07/25 03:19:24;;;;;;;8.32;7.10;;;;;;;;;;5093489;28;20109;-60
2021/07/25 03:21:51;;;;;;;7.88;7.07;;;;;;;;;;5096934;28;20026;-60
2021/07/25 03:24:16;;;;;;;12.10;7.32;;;;;;;;;;5096771;28;20020;-60
2021/07/25 03:26:42;;;;;;;8.15;6.60;;;;;;;;;;5096705;28;20078;-60
2021/07/25 03:29:08;;;;;;;8.25;7.45;;;;;;;;;;5095854;28;20026;-60
2021/07/25 03:31:34;;;;;;;10.05;8.13;;;;;;;;;;5097096;28;20020;-60
2021/07/25 03:34:00;;;;;;;11.35;7.53;;;;;;;;;;5096206;28;20020;-60
2021/07/25 03:36:27;;;;;;;7.43;6.72;;;;;;;;;;5096501;28;20032;-60
2021/07/25 03:38:53;;;;;;;8.73;7.05;;;;;;;;;;5096519;28;20467;-60
2021/07/25 03:41:19;;;;;;;9.27;7.80;;;;;;;;;;5097141;28;20134;-60
2021/07/25 03:43:45;;;;;;;13.48;7.30;;;;;;;;;;5096523;28;20401;-60
2021/07/25 03:46:11;;;;;;;8.70;7.90;;;;;;;;;;5096520;28;20024;-60
2021/07/25 03:48:37;;;;;;;9.23;6.72;;;;;;;;;;5096023;28;20444;-60
2021/07/25 03:51:03;;;;;;;8.95;7.05;;;;;;;;;;5096311;28;20140;-60
2021/07/25 03:53:29;;;;;;;10.80;7.53;;;;;;;;;;5096301;28;20562;-60
2021/07/25 03:55:55;;;;;;;9.13;6.65;;;;;;;;;;5096002;28;20513;-60
2021/07/25 03:58:21;;;;;;;7.47;6.15;;;;;;;;;;5095786;28;20035;-60
2021/07/25 04:00:47;;;;;;;10.30;6.15;;;;;;;;;;5096359;28;20389;-60
2021/07/25 04:03:13;;;;;;;6.28;5.68;;;;;;;;;;5096590;28;20032;-60
2021/07/25 04:05:39;;;;;;;7.22;6.20;;;;;;;;;;5094726;28;20050;-60
2021/07/25 04:08:09;;;;;;;8.93;5.90;;;;;;;;;;5096042;28;20461;-60
2021/07/25 04:10:39;;;;;;;8.02;5.50;;;;;;;;;;5096114;28;20062;-60
2021/07/25 04:13:05;;;;;;;7.65;5.53;;;;;;;;;;5094181;28;20024;-59
2021/07/25 04:15:31;;;;;;;7.50;5.78;;;;;;;;;;5095850;28;20355;-60
2021/07/25 04:18:00;;;;;;;6.78;6.00;;;;;;;;;;5095647;28;20020;-60
2021/07/25 04:20:28;;;;;;;6.97;5.55;;;;;;;;;;5094985;28;20023;-60
2021/07/25 04:22:54;;;;;;;7.30;5.70;;;;;;;;;;5094650;28;20063;-60
2021/07/25 04:25:20;;;;;;;10.63;6.10;;;;;;;;;;5095585;28;20465;-60
2021/07/25 04:27:46;;;;;;;6.72;6.03;;;;;;;;;;5095266;28;20050;-60
2021/07/25 04:30:12;;;;;;;7.90;5.55;;;;;;;;;;5093931;28;20048;-60
2021/07/25 04:32:38;;;;;;;6.97;6.20;;;;;;;;;;5095323;28;20020;-60
2021/07/25 04:35:07;;;;;;;8.52;6.05;;;;;;;;;;5095373;28;20034;-60
2021/07/25 04:37:35;;;;;;;5.03;4.22;;;;;;;;;;5095954;28;20135;-60
2021/07/25 04:40:03;;;;;;;8.13;6.72;;;;;;;;;;5095439;28;20023;-60
2021/07/25 04:42:30;;;;;;;7.38;5.70;;;;;;;;;;5095783;28;20023;-60
2021/07/25 04:44:56;;;;;;;7.97;5.78;;;;;;;;;;5095272;28;20038;-60
2021/07/25 04:47:30;;;;;;;6.63;5.13;;;;;;;;;;5095362;28;20482;-60
2021/07/25 04:49:56;;;;;;;9.52;5.88;;;;;;;;;;5095812;28;20028;-60
2021/07/25 04:52:23;;;;;;;10.13;5.57;;;;;;;;;;5094143;28;20136;-60
2021/07/25 04:54:49;;;;;;;6.63;5.78;;;;;;;;;;5094963;28;20025;-60
2021/07/25 04:57:18;;;;;;;9.32;5.68;;;;;;;;;;5094974;28;20035;-60
2021/07/25 04:59:47;;;;;;;8.30;5.53;;;;;;;;;;5094990;28;20028;-60
2021/07/25 05:02:16;;;;;;;8.13;5.03;;;;;;;;;;5095124;28;20024;-60
2021/07/25 05:04:42;;;;;;;6.55;5.22;;;;;;;;;;5094906;28;20016;-60
2021/07/25 05:07:12;;;;;;;5.88;4.90;;;;;;;;;;5094911;28;20032;-60
2021/07/25 05:09:38;;;;;;;10.65;5.00;;;;;;;;;;5095307;28;20035;-60
2021/07/25 05:12:23;;;;;;;7.75;4.97;;;;;;;;;;5094267;28;20047;-60
2021/07/25 05:14:49;;;;;;;7.38;6.20;;;;;;;;;;5095014;28;20028;-60
2021/07/25 05:17:21;;;;;;;5.93;5.28;;;;;;;;;;5094554;28;20115;-60
2021/07/25 05:20:06;;;;;;;6.50;5.63;;;;;;;;;;5095306;28;20067;-60
2021/07/25 05:22:35;;;;;;;4.85;4.35;;;;;;;;;;5094766;28;20020;-60
2021/07/25 05:25:05;;;;;;;8.57;5.07;;;;;;;;;;5094478;28;20028;-60
2021/07/25 05:27:35;;;;;;;10.70;5.85;;;;;;;;;;5094487;28;20119;-60
2021/07/25 05:30:02;;;;;;;7.70;5.13;;;;;;;;;;5095047;28;20437;-60
2021/07/25 05:32:27;;;;;;;10.93;5.70;;;;;;;;;;5094615;28;20046;-60
2021/07/25 05:34:53;;;;;;;6.95;5.22;;;;;;;;;;5093314;28;20035;-60
2021/07/25 05:37:19;;;;;;;7.20;5.50;;;;;;;;;;5093058;28;20035;-60
2021/07/25 05:39:45;;;;;;;6.97;6.03;;;;;;;;;;5094854;28;20056;-60
2021/07/25 05:42:11;;;;;;;6.22;5.60;;;;;;;;;;5094018;28;20434;-60
2021/07/25 05:44:37;;;;;;;5.93;5.32;;;;;;;;;;5094160;28;20020;-60
2021/07/25 05:47:03;;;;;;;5.32;4.75;;;;;;;;;;5094401;28;20081;-60
2021/07/25 05:49:29;;;;;;;16.30;5.97;;;;;;;;;;5094186;28;20095;-60
2021/07/25 05:51:55;;;;;;;7.72;5.28;;;;;;;;;;5094482;28;20066;-60
2021/07/25 05:54:21;;;;;;;7.03;5.00;;;;;;;;;;5094286;28;20024;-60
2021/07/25 05:56:48;;;;;;;5.20;4.70;;;;;;;;;;5094148;28;20370;-60
2021/07/25 05:59:14;;;;;;;7.97;5.88;;;;;;;;;;5093970;28;20020;-60
2021/07/25 06:01:40;;;;;;;9.43;6.22;;;;;;;;;;5092701;28;20038;-60
2021/07/25 06:04:06;;;;;;;7.25;5.90;;;;;;;;;;5094574;28;20020;-60
2021/07/25 06:06:33;;;;;;;7.18;5.70;;;;;;;;;;5092622;28;20028;-60
2021/07/25 06:08:59;;;;;;;6.30;5.00;;;;;;;;;;5093746;28;20028;-60
2021/07/25 06:11:25;;;;;;;10.00;7.53;;;;;;;;;;5093774;28;20046;-60
2021/07/25 06:13:53;;;;;;;7.20;5.75;;;;;;;;;;5092506;28;20024;-60
2021/07/25 06:16:19;;;;;;;7.60;5.22;;;;;;;;;;5093588;28;20032;-60
2021/07/25 06:18:48;;;;;;;6.50;5.35;;;;;;;;;;5093738;28;20077;-60
2021/07/25 06:21:20;;;;;;;7.28;6.00;;;;;;;;;;5093715;28;20032;-60
2021/07/25 06:23:50;;;;;;;6.20;5.53;;;;;;;;;;5094101;28;20085;-60
2021/07/25 06:26:16;;;;;;;6.55;5.70;;;;;;;;;;5092132;28;20070;-60
2021/07/25 06:28:42;;;;;;;7.95;5.38;;;;;;;;;;5094347;28;20342;-60
2021/07/25 06:31:08;;;;;;;6.20;5.25;;;;;;;;;;5093594;28;20023;-60
2021/07/25 06:33:34;;;;;;;6.53;4.72;;;;;;;;;;5093570;28;20020;-60
2021/07/25 06:36:01;;;;;;;7.65;5.75;;;;;;;;;;5093460;28;20065;-60
2021/07/25 06:38:27;;;;;;;10.38;6.25;;;;;;;;;;5093517;28;20036;-60
2021/07/25 06:40:54;;;;;;;5.35;4.45;;;;;;;;;;5093577;28;20266;-60
2021/07/25 06:43:21;;;;;;;7.70;5.85;;;;;;;;;;5093830;28;20454;-60
2021/07/25 06:45:48;;;;;;;6.65;4.90;;;;;;;;;;5092687;28;20020;-60
2021/07/25 06:48:21;;;;;;;7.88;4.90;;;;;;;;;;5093779;28;20031;-60
2021/07/25 06:50:52;;;;;;;6.70;5.03;;;;;;;;;;5092946;28;20022;-58
2021/07/25 06:53:18;;;;;;;6.80;4.82;;;;;;;;;;5094037;28;20078;-58
2021/07/25 06:55:45;;;;;;;7.15;5.18;;;;;;;;;;5097866;28;20032;-59
2021/07/25 06:58:11;;;;;;;10.65;4.88;;;;;;;;;;5095733;28;20043;-59
2021/07/25 07:00:37;;;;;;;5.32;4.43;;;;;;;;;;5097239;28;20023;-58
2021/07/25 07:03:03;;;;;;;5.25;4.65;;;;;;;;;;5096366;28;20032;-58
2021/07/25 07:05:30;;;;;;;5.95;4.60;;;;;;;;;;5097252;28;20081;-59
2021/07/25 07:08:00;;;;;;;4.88;4.00;;;;;;;;;;5097097;28;20425;-58
2021/07/25 07:10:27;;;;;;;9.52;4.88;;;;;;;;;;5096946;28;20024;-59
2021/07/25 07:12:54;;;;;;;6.47;3.88;;;;;;;;;;5097575;28;20055;-58
2021/07/25 07:15:21;;;;;;;4.80;4.10;;;;;;;;;;5097083;28;20099;-58
2021/07/25 07:17:51;;;;;;;6.45;4.95;;;;;;;;;;5096860;28;20028;-59
2021/07/25 07:20:17;;;;;;;5.60;3.75;;;;;;;;;;5097215;28;20024;-58
2021/07/25 07:22:50;;;;;;;8.90;3.78;;;;;;;;;;5097480;28;20028;-58
2021/07/25 07:25:19;;;;;;;6.35;4.53;;;;;;;;;;5095366;28;20103;-58
2021/07/25 07:27:45;;;;;;;6.03;4.15;;;;;;;;;;5096890;28;20020;-60
2021/07/25 07:30:11;;;;;;;5.45;4.50;;;;;;;;;;5096614;28;20031;-60
2021/07/25 07:32:37;;;;;;;7.43;4.75;;;;;;;;;;5096269;28;20024;-59
2021/07/25 07:35:03;;;;;;;4.88;4.07;;;;;;;;;;5096787;28;20039;-60
2021/07/25 07:37:29;;;;;;;7.90;4.28;;;;;;;;;;5096481;28;20024;-60
2021/07/25 07:39:55;;;;;;;7.13;4.30;;;;;;;;;;5095259;28;20020;-61
2021/07/25 07:42:21;;;;;;;5.07;3.78;;;;;;;;;;5095248;28;20110;-60
2021/07/25 07:44:47;;;;;;;6.20;3.90;;;;;;;;;;5096959;28;20059;-60
2021/07/25 07:47:13;;;;;;;5.13;4.25;;;;;;;;;;5096943;28;20343;-59
2021/07/25 07:49:39;;;;;;;7.47;4.30;;;;;;;;;;5096391;28;20376;-58
2021/07/25 07:52:06;;;;;;;4.68;3.58;;;;;;;;;;5096881;28;20418;-61
2021/07/25 07:54:32;;;;;;;10.35;4.47;;;;;;;;;;5096397;28;20034;-60
2021/07/25 07:56:58;;;;;;;5.78;4.35;;;;;;;;;;5096260;28;20032;-59
2021/07/25 07:59:24;;;;;;;5.07;4.13;;;;;;;;;;5096626;28;20064;-60
2021/07/25 08:01:53;;;;;;;5.10;3.92;;;;;;;;;;5096891;28;20028;-60
2021/07/25 08:04:21;;;;;;;4.20;3.75;;;;;;;;;;5096533;28;20470;-60
2021/07/25 08:06:47;;;;;;;5.05;3.85;;;;;;;;;;5093443;28;20077;-60
2021/07/25 08:09:13;;;;;;;7.72;4.18;;;;;;;;;;5096132;28;20065;-60
2021/07/25 08:11:43;;;;;;;4.30;3.50;;;;;;;;;;5095624;28;20074;-60
2021/07/25 08:14:11;;;;;;;4.72;4.10;;;;;;;;;;5097066;28;20024;-60
2021/07/25 08:16:37;;;;;;;6.63;3.90;;;;;;;;;;5096406;28;20118;-60
2021/07/25 08:19:03;;;;;;;4.88;3.90;;;;;;;;;;5095211;28;20082;-60
2021/07/25 08:21:32;;;;;;;7.28;4.22;;;;;;;;;;5095981;28;20024;-60
2021/07/25 08:23:58;;;;;;;5.13;4.50;;;;;;;;;;5096075;28;20035;-59
2021/07/25 08:26:24;;;;;;;5.78;4.00;;;;;;;;;;5095797;28;20032;-60
2021/07/25 08:28:50;;;;;;;5.05;3.78;;;;;;;;;;5094961;28;20069;-60
2021/07/25 08:31:16;;;;;;;6.95;4.10;;;;;;;;;;5095272;28;20031;-59
2021/07/25 08:33:42;;;;;;;6.30;4.13;;;;;;;;;;5096096;28;20099;-58
2021/07/25 08:36:08;;;;;;;6.00;3.88;;;;;;;;;;5095305;28;20027;-60
2021/07/25 08:38:34;;;;;;;5.47;3.67;;;;;;;;;;5095488;28;20020;-60
2021/07/25 08:41:13;;;;;;;6.45;4.43;;;;;;;;;;5095595;28;20024;-60
2021/07/25 08:43:47;;;;;;;5.55;4.65;;;;;;;;;;5095386;28;20077;-59
2021/07/25 08:46:20;;;;;;;6.22;4.68;;;;;;;;;;5095673;28;20028;-59
2021/07/25 08:48:47;;;;;;;4.88;4.20;;;;;;;;;;5095342;28;20035;-59
2021/07/25 08:51:23;;;;;;;5.93;5.22;;;;;;;;;;5095569;28;20454;-59
2021/07/25 08:53:59;;;;;;;6.80;5.20;;;;;;;;;;5094081;28;20055;-59
2021/07/25 08:56:32;;;;;;;5.88;5.10;;;;;;;;;;5093790;28;20021;-59
2021/07/25 08:59:00;;;;;;;10.45;6.25;;;;;;;;;;5095428;28;20081;-59
2021/07/25 09:01:34;;;;;;;9.82;6.90;;;;;;;;;;5094345;28;20023;-58
2021/07/25 09:04:01;;;;;;;10.70;7.65;;;;;;;;;;5094998;28;20048;-58
2021/07/25 09:06:32;;;;;;;10.88;9.05;;;;;;;;;;5094884;28;20023;-58
2021/07/25 09:09:01;;;;;;;12.50;7.28;;;;;;;;;;5095154;28;20024;-58
2021/07/25 09:11:27;;;;;;;11.82;8.35;;;;;;;;;;5094800;28;20052;-58
2021/07/25 09:13:58;;;;;;;11.43;8.45;;;;;;;;;;5095084;28;20103;-58
2021/07/25 09:16:26;;;;;;;12.70;9.20;;;;;;;;;;5095449;28;20477;-58
2021/07/25 09:18:53;;;;;;;12.77;9.25;;;;;;;;;;5093498;28;20036;-58
2021/07/25 09:21:39;;;;;;;11.93;7.65;;;;;;;;;;5094379;28;20427;-58
2021/07/25 09:24:15;;;;;;;10.95;8.57;;;;;;;;;;5093727;28;20028;-58
2021/07/25 09:26:50;;;;;;;8.25;6.53;;;;;;;;;;5094866;28;20046;-58
2021/07/25 09:29:17;;;;;;;7.07;4.97;;;;;;;;;;5093610;28;20020;-59
2021/07/25 09:31:43;;;;;;;6.43;4.70;;;;;;;;;;5094093;28;20046;-58
2021/07/25 09:34:09;;;;;;;5.80;4.80;;;;;;;;;;5095072;28;20026;-58
2021/07/25 09:36:37;;;;;;;7.43;4.57;;;;;;;;;;5094667;28;20033;-60
2021/07/25 09:39:04;;;;;;;5.43;4.40;;;;;;;;;;5095014;28;20031;-59
2021/07/25 09:41:32;;;;;;;4.85;4.32;;;;;;;;;;5094729;28;20051;-60
2021/07/25 09:44:04;;;;;;;8.43;5.65;;;;;;;;;;5094869;28;20028;-59
2021/07/25 09:46:51;;;;;;;5.03;4.22;;;;;;;;;;5094621;28;20020;-60
2021/07/25 09:49:20;;;;;;;7.03;4.82;;;;;;;;;;5095036;28;20016;-59
2021/07/25 09:51:47;;;;;;;5.50;4.95;;;;;;;;;;5094780;28;20034;-58
2021/07/25 09:54:13;;;;;;;9.32;5.78;;;;;;;;;;5094271;28;20653;-58
2021/07/25 09:56:39;;;;;;;5.65;5.05;;;;;;;;;;5094352;28;20028;-58
2021/07/25 09:59:22;;;;;;;5.22;4.45;;;;;;;;;;5093101;28;20109;-58
2021/07/25 10:01:48;;;;;;;6.15;4.93;;;;;;;;;;5092971;28;20415;-58
2021/07/25 10:04:23;;;;;;;5.82;4.53;;;;;;;;;;5094347;28;20020;-58
2021/07/25 10:06:50;;;;;;;6.15;4.82;;;;;;;;;;5094291;28;20063;-58
2021/07/25 10:09:18;;;;;;;7.65;5.47;;;;;;;;;;5092918;28;20399;-58
2021/07/25 10:11:58;;;;;;;5.90;5.22;;;;;;;;;;5094163;28;20047;-58
2021/07/25 10:14:25;;;;;;;6.18;5.57;;;;;;;;;;5093983;28;20032;-58
2021/07/25 10:16:52;;;;;;;5.97;5.32;;;;;;;;;;5093998;28;20024;-58
2021/07/25 10:19:24;;;;;;;5.60;4.93;;;;;;;;;;5094056;28;20019;-58
2021/07/25 10:21:50;;;;;;;5.93;4.82;;;;;;;;;;5094086;28;20484;-58
2021/07/25 10:24:18;;;;;;;5.65;4.70;;;;;;;;;;5094081;28;20389;-58
2021/07/25 10:26:44;;;;;;;6.65;5.03;;;;;;;;;;5094167;28;20035;-59
2021/07/25 10:29:11;;;;;;;6.30;5.70;;;;;;;;;;5092176;28;20031;-59
2021/07/25 10:31:39;;;;;;;8.98;5.40;;;;;;;;;;5094246;28;20303;-59
2021/07/25 10:34:05;;;;;;;7.15;5.35;;;;;;;;;;5094393;28;20020;-59
2021/07/25 10:36:32;;;;;;;6.55;5.05;;;;;;;;;;5094191;28;20036;-59
2021/07/25 10:38:59;;;;;;;6.00;5.10;;;;;;;;;;5094425;28;20024;-59
2021/07/25 10:41:26;;;;;;;7.35;5.45;;;;;;;;;;5093949;28;20031;-59
2021/07/25 10:43:52;;;;;;;5.65;4.40;;;;;;;;;;5093838;28;20027;-59
2021/07/25 10:46:22;;;;;;;6.72;4.88;;;;;;;;;;5093974;28;20088;-59
2021/07/25 10:49:00;;;;;;;6.53;5.47;;;;;;;;;;5093573;28;20016;-60
2021/07/25 10:51:30;;;;;;;5.93;4.57;;;;;;;;;;5093945;28;20246;-59
2021/07/25 10:54:14;;;;;;;6.22;5.00;;;;;;;;;;5093736;28;20073;-59
2021/07/25 10:56:59;;;;;;;6.80;4.80;;;;;;;;;;5093630;28;20075;-59
2021/07/25 10:59:44;;;;;;;7.35;4.82;;;;;;;;;;5093941;28;20020;-59
2021/07/25 11:02:14;;;;;;;5.72;4.63;;;;;;;;;;5093648;28;20462;-59
2021/07/25 11:04:55;;;;;;;5.40;4.07;;;;;;;;;;5093547;28;20225;-60
2021/07/25 11:07:25;;;;;;;4.97;4.47;;;;;;;;;;5093555;28;20028;-60
2021/07/25 11:09:57;;;;;;;6.40;5.13;;;;;;;;;;5092600;28;20024;-59
2021/07/25 11:12:23;;;;;;;4.82;4.30;;;;;;;;;;5094280;28;20067;-59
2021/07/25 11:15:01;;;;;;;5.35;4.85;;;;;;;;;;5093629;28;20028;-59
2021/07/25 11:17:45;;;;;;;6.80;4.85;;;;;;;;;;5093214;28;20028;-59
2021/07/25 11:20:30;;;;;;;5.85;4.45;;;;;;;;;;5093965;28;20027;-59
2021/07/25 11:22:56;;;;;;;9.93;5.13;;;;;;;;;;5093706;28;20106;-59
2021/07/25 11:25:35;;;;;;;7.82;5.18;;;;;;;;;;5093609;28;20097;-59
2021/07/25 11:28:04;;;;;;;6.82;5.10;;;;;;;;;;5093166;28;20024;-59
2021/07/25 11:30:49;;;;;;;5.88;5.28;;;;;;;;;;5093284;28;20024;-59
2021/07/25 11:33:34;;;;;;;8.38;5.82;;;;;;;;;;5093763;28;20020;-59
2021/07/25 11:36:01;;;;;;;7.07;5.10;;;;;;;;;;5093311;28;20035;-60
2021/07/25 11:38:27;;;;;;;7.78;5.78;;;;;;;;;;5093038;28;20028;-59
2021/07/25 11:40:55;;;;;;;5.65;5.00;;;;;;;;;;5095643;28;20386;-59
2021/07/25 11:43:21;;;;;;;7.63;6.13;;;;;;;;;;5097359;28;20507;-59
2021/07/25 11:45:47;;;;;;;6.47;5.47;;;;;;;;;;5097346;28;20016;-59
2021/07/25 11:48:20;;;;;;;7.18;5.70;;;;;;;;;;5097094;28;20377;-59
2021/07/25 11:50:46;;;;;;;5.90;5.30;;;;;;;;;;5096467;28;20354;-59
2021/07/25 11:53:12;;;;;;;5.55;4.50;;;;;;;;;;5097181;28;20024;-59
2021/07/25 11:55:38;;;;;;;7.63;5.75;;;;;;;;;;5096451;28;20530;-59
2021/07/25 11:58:14;;;;;;;6.63;5.45;;;;;;;;;;5096656;28;20075;-59
2021/07/25 12:00:40;;;;;;;6.45;5.40;;;;;;;;;;5096642;28;20020;-59
2021/07/25 12:03:06;;;;;;;6.60;5.93;;;;;;;;;;5096885;28;20098;-59
2021/07/25 12:05:32;;;;;;;6.32;5.70;;;;;;;;;;5096247;28;20055;-59
2021/07/25 12:08:11;;;;;;;6.47;5.18;;;;;;;;;;5096400;28;20032;-59
2021/07/25 12:10:37;;;;;;;7.43;5.45;;;;;;;;;;5096188;28;20102;-59
2021/07/25 12:13:07;;;;;;;6.82;5.53;;;;;;;;;;5095531;28;20048;-59
2021/07/25 12:15:33;;;;;;;6.28;4.70;;;;;;;;;;5096162;28;20028;-59
2021/07/25 12:17:59;;;;;;;6.65;5.97;;;;;;;;;;5096421;28;20451;-59
2021/07/25 12:20:28;;;;;;;6.90;5.47;;;;;;;;;;5096351;28;20069;-59
2021/07/25 12:22:59;;;;;;;6.28;5.05;;;;;;;;;;5096478;28;20081;-59
2021/07/25 12:25:25;;;;;;;8.50;4.75;;;;;;;;;;5095096;28;20024;-59
2021/07/25 12:28:04;;;;;;;6.65;5.18;;;;;;;;;;5096102;28;20028;-59
2021/07/25 12:30:46;;;;;;;6.78;5.60;;;;;;;;;;5094965;28;20031;-59
2021/07/25 12:33:16;;;;;;;7.75;5.50;;;;;;;;;;5095228;28;20068;-59
2021/07/25 12:35:43;;;;;;;6.85;5.82;;;;;;;;;;5095869;28;20012;-60
2021/07/25 12:38:10;;;;;;;8.23;5.32;;;;;;;;;;5095997;28;20040;-60
2021/07/25 12:40:46;;;;;;;6.85;5.75;;;;;;;;;;5095812;28;20059;-60
2021/07/25 12:43:16;;;;;;;7.63;5.75;;;;;;;;;;5095778;28;20032;-59
2021/07/25 12:45:42;;;;;;;5.35;4.85;;;;;;;;;;5096385;28;20028;-59
2021/07/25 12:48:08;;;;;;;5.97;5.22;;;;;;;;;;5095702;28;20049;-59
2021/07/25 12:50:47;;;;;;;8.40;6.10;;;;;;;;;;5095883;28;20024;-59
2021/07/25 12:53:16;;;;;;;5.00;4.18;;;;;;;;;;5095611;28;20027;-60
2021/07/25 12:55:45;;;;;;;5.13;3.97;;;;;;;;;;5095628;28;20030;-59
2021/07/25 12:58:11;;;;;;;6.70;4.78;;;;;;;;;;5095158;28;20036;-60
2021/07/25 13:06:41;;;;;;;5.88;3.88;;;;;;;;;;5093594;28;20028;-59
2021/07/25 13:09:09;;;;;;;6.15;4.50;;;;;;;;;;5095381;28;20454;-60
2021/07/25 13:11:38;;;;;;;6.70;4.72;;;;;;;;;;5095454;28;20048;-60
2021/07/25 13:14:05;;;;;;;6.67;4.63;;;;;;;;;;5095410;28;20028;-59
2021/07/25 13:16:33;;;;;;;5.75;5.22;;;;;;;;;;5095049;28;20146;-59
2021/07/25 13:19:00;;;;;;;5.32;4.75;;;;;;;;;;5094986;28;20028;-59
2021/07/25 13:21:27;;;;;;;5.78;4.78;;;;;;;;;;5095303;28;20016;-59
2021/07/25 13:23:53;;;;;;;6.63;5.55;;;;;;;;;;5094442;28;20562;-59
2021/07/25 13:26:20;;;;;;;6.05;4.40;;;;;;;;;;5094886;28;20020;-59
2021/07/25 13:28:46;;;;;;;6.15;5.45;;;;;;;;;;5094303;28;20448;-59
2021/07/25 13:31:13;;;;;;;6.47;4.90;;;;;;;;;;5094765;28;20016;-59
2021/07/25 13:33:39;;;;;;;7.00;5.95;;;;;;;;;;5094779;28;20020;-59
2021/07/25 13:36:06;;;;;;;10.15;6.07;;;;;;;;;;5095146;28;20043;-59
2021/07/25 13:38:34;;;;;;;7.72;6.22;;;;;;;;;;5094547;28;20028;-59
2021/07/25 13:41:01;;;;;;;5.15;4.65;;;;;;;;;;5094540;28;20020;-59
2021/07/25 13:43:27;;;;;;;7.45;5.63;;;;;;;;;;5095035;28;20077;-59
2021/07/25 13:45:59;;;;;;;7.85;5.18;;;;;;;;;;5094403;28;20085;-59
2021/07/25 13:48:34;;;;;;;7.38;6.35;;;;;;;;;;5093051;28;20035;-58
2021/07/25 13:51:02;;;;;;;7.45;5.65;;;;;;;;;;5094590;28;20020;-59
2021/07/25 13:53:30;;;;;;;8.05;5.90;;;;;;;;;;5095280;28;20048;-59
2021/07/25 13:55:56;;;;;;;7.10;5.85;;;;;;;;;;5094276;28;20485;-59
2021/07/25 13:58:22;;;;;;;7.03;5.32;;;;;;;;;;5094331;28;20485;-60
2021/07/25 14:00:49;;;;;;;7.65;6.07;;;;;;;;;;5094354;28;20081;-59
2021/07/25 14:03:14;;;;;;;7.00;5.63;;;;;;;;;;5093599;28;20378;-60
2021/07/25 14:05:40;;;;;;;6.30;5.68;;;;;;;;;;5094795;28;20020;-58
2021/07/25 14:08:07;;;;;;;7.78;6.45;;;;;;;;;;5094266;28;20494;-60
2021/07/25 14:10:34;;;;;;;8.10;6.05;;;;;;;;;;5094066;28;20031;-60
2021/07/25 14:13:00;;;;;;;6.32;5.03;;;;;;;;;;5093180;28;20020;-60
2021/07/25 14:15:27;;;;;;;7.57;5.93;;;;;;;;;;5094199;28;20020;-60
2021/07/25 14:17:53;;;;;;;8.48;6.28;;;;;;;;;;5092822;28;20059;-60
2021/07/25 14:20:20;;;;;;;7.10;6.40;;;;;;;;;;5092836;28;20087;-60
2021/07/25 14:22:46;;;;;;;6.28;5.55;;;;;;;;;;5094861;28;20024;-60
2021/07/25 14:25:12;;;;;;;7.95;5.85;;;;;;;;;;5093962;28;20021;-60
2021/07/25 14:27:38;;;;;;;7.63;6.50;;;;;;;;;;5093946;28;20090;-60
2021/07/25 14:30:05;;;;;;;6.10;5.50;;;;;;;;;;5094685;28;20032;-60
2021/07/25 14:32:31;;;;;;;7.75;6.45;;;;;;;;;;5094186;28;20032;-59
2021/07/25 14:34:57;;;;;;;6.60;5.20;;;;;;;;;;5093609;28;20525;-59
2021/07/25 14:37:24;;;;;;;9.55;6.20;;;;;;;;;;5093678;28;20043;-59
2021/07/25 14:39:50;;;;;;;6.38;5.35;;;;;;;;;;5093806;28;20016;-60
2021/07/25 14:42:16;;;;;;;6.03;5.07;;;;;;;;;;5093771;28;20020;-60
2021/07/25 14:44:42;;;;;;;7.10;5.60;;;;;;;;;;5093619;28;20196;-60
2021/07/25 14:47:08;;;;;;;5.85;5.00;;;;;;;;;;5093364;28;20123;-59
2021/07/25 14:49:34;;;;;;;8.55;6.18;;;;;;;;;;5093415;28;20027;-59
2021/07/25 14:52:00;;;;;;;8.88;5.28;;;;;;;;;;5094000;28;20343;-59